sensor_id;sensor_type;location;lat;lon;timestamp;temperature;humidity
68257;DHT22;55069;51.568;4.656;2023-04-15T00:00:08;8.60;76.05
68257;DHT22;55069;51.568;4.656;2023-04-15T00:02:40;8.63;74.99
68257;DHT22;55069;51.568;4.656;2023-04-15T00:05:06;8.63;75.70
68257;DHT22;55069;51.568;4.656;2023-04-15T00:07:32;8.67;75.79
68257;DHT22;55069;51.568;4.656;2023-04-15T00:09:58;8.67;75.85
68257;DHT22;55069;51.568;4.656;2023-04-15T00:12:24;8.66;75.09
68257;DHT22;55069;51.568;4.656;2023-04-15T00:14:50;8.69;75.48
68257;DHT22;55069;51.568;4.656;2023-04-15T00:17:16;8.69;74.04
68257;DHT22;55069;51.568;4.656;2023-04-15T00:19:42;8.73;73.71
68257;DHT22;55069;51.568;4.656;2023-04-15T00:22:10;8.76;73.62
68257;DHT22;55069;51.568;4.656;2023-04-15T00:24:36;8.76;73.15
68257;DHT22;55069;51.568;4.656;2023-04-15T00:27:02;8.76;73.25
68257;DHT22;55069;51.568;4.656;2023-04-15T00:29:29;8.74;72.75
68257;DHT22;55069;51.568;4.656;2023-04-15T00:31:55;8.74;72.59
68257;DHT22;55069;51.568;4.656;2023-04-15T00:34:21;8.74;73.25
68257;DHT22;55069;51.568;4.656;2023-04-15T00:36:48;8.70;73.92
68257;DHT22;55069;51.568;4.656;2023-04-15T00:39:13;8.70;74.72
68257;DHT22;55069;51.568;4.656;2023-04-15T00:41:43;8.64;74.41
68257;DHT22;55069;51.568;4.656;2023-04-15T00:44:08;8.59;73.20
68257;DHT22;55069;51.568;4.656;2023-04-15T00:46:35;8.63;73.08
68257;DHT22;55069;51.568;4.656;2023-04-15T00:49:03;8.57;72.70
68257;DHT22;55069;51.568;4.656;2023-04-15T00:51:29;8.54;72.72
68257;DHT22;55069;51.568;4.656;2023-04-15T00:54:02;8.52;74.13
68257;DHT22;55069;51.568;4.656;2023-04-15T00:56:29;8.43;74.36
68257;DHT22;55069;51.568;4.656;2023-04-15T00:58:56;8.39;73.33
68257;DHT22;55069;51.568;4.656;2023-04-15T01:01:23;8.38;74.19
68257;DHT22;55069;51.568;4.656;2023-04-15T01:03:49;8.33;75.52
68257;DHT22;55069;51.568;4.656;2023-04-15T01:06:16;8.25;76.48
68257;DHT22;55069;51.568;4.656;2023-04-15T01:08:43;8.20;77.06
68257;DHT22;55069;51.568;4.656;2023-04-15T01:11:11;8.15;76.66
68257;DHT22;55069;51.568;4.656;2023-04-15T01:13:38;8.06;77.06
68257;DHT22;55069;51.568;4.656;2023-04-15T01:16:04;8.05;76.33
68257;DHT22;55069;51.568;4.656;2023-04-15T01:18:30;7.99;76.34
68257;DHT22;55069;51.568;4.656;2023-04-15T01:20:59;7.97;76.36
68257;DHT22;55069;51.568;4.656;2023-04-15T01:23:26;7.97;75.95
68257;DHT22;55069;51.568;4.656;2023-04-15T01:25:52;7.99;76.35
68257;DHT22;55069;51.568;4.656;2023-04-15T01:28:18;7.98;75.60
68257;DHT22;55069;51.568;4.656;2023-04-15T01:30:44;8.01;74.71
68257;DHT22;55069;51.568;4.656;2023-04-15T01:33:10;8.01;75.68
68257;DHT22;55069;51.568;4.656;2023-04-15T01:35:37;8.06;74.85
68257;DHT22;55069;51.568;4.656;2023-04-15T01:38:07;8.09;75.65
68257;DHT22;55069;51.568;4.656;2023-04-15T01:40:33;8.09;76.03
68257;DHT22;55069;51.568;4.656;2023-04-15T01:43:00;8.16;76.36
68257;DHT22;55069;51.568;4.656;2023-04-15T01:45:26;8.16;76.55
68257;DHT22;55069;51.568;4.656;2023-04-15T01:47:52;8.18;76.58
68257;DHT22;55069;51.568;4.656;2023-04-15T01:50:18;8.21;75.99
68257;DHT22;55069;51.568;4.656;2023-04-15T01:52:45;8.25;75.91
68257;DHT22;55069;51.568;4.656;2023-04-15T01:55:12;8.29;75.95
68257;DHT22;55069;51.568;4.656;2023-04-15T01:57:37;8.31;75.71
68257;DHT22;55069;51.568;4.656;2023-04-15T02:00:05;8.31;75.59
68257;DHT22;55069;51.568;4.656;2023-04-15T02:02:38;8.31;75.39
68257;DHT22;55069;51.568;4.656;2023-04-15T02:05:04;8.32;74.74
68257;DHT22;55069;51.568;4.656;2023-04-15T02:07:30;8.36;74.84
68257;DHT22;55069;51.568;4.656;2023-04-15T02:09:57;8.36;75.25
68257;DHT22;55069;51.568;4.656;2023-04-15T02:12:22;8.39;73.69
68257;DHT22;55069;51.568;4.656;2023-04-15T02:14:48;8.41;73.71
68257;DHT22;55069;51.568;4.656;2023-04-15T02:17:14;8.39;74.25
68257;DHT22;55069;51.568;4.656;2023-04-15T02:19:42;8.42;74.58
68257;DHT22;55069;51.568;4.656;2023-04-15T02:22:07;8.46;75.04
68257;DHT22;55069;51.568;4.656;2023-04-15T02:24:33;8.46;74.91
68257;DHT22;55069;51.568;4.656;2023-04-15T02:26:59;8.48;74.90
68257;DHT22;55069;51.568;4.656;2023-04-15T02:29:26;8.53;74.24
68257;DHT22;55069;51.568;4.656;2023-04-15T02:31:51;8.52;75.32
68257;DHT22;55069;51.568;4.656;2023-04-15T02:34:17;8.52;74.86
68257;DHT22;55069;51.568;4.656;2023-04-15T02:36:43;8.53;74.57
68257;DHT22;55069;51.568;4.656;2023-04-15T02:39:11;8.54;75.17
68257;DHT22;55069;51.568;4.656;2023-04-15T02:41:39;8.54;75.96
68257;DHT22;55069;51.568;4.656;2023-04-15T02:44:04;8.54;75.47
68257;DHT22;55069;51.568;4.656;2023-04-15T02:46:31;8.54;75.21
68257;DHT22;55069;51.568;4.656;2023-04-15T02:48:57;8.59;74.89
68257;DHT22;55069;51.568;4.656;2023-04-15T02:51:24;8.59;74.90
68257;DHT22;55069;51.568;4.656;2023-04-15T02:53:50;8.56;75.59
68257;DHT22;55069;51.568;4.656;2023-04-15T02:56:16;8.57;75.17
68257;DHT22;55069;51.568;4.656;2023-04-15T02:58:43;8.59;75.79
68257;DHT22;55069;51.568;4.656;2023-04-15T03:01:09;8.56;75.93
68257;DHT22;55069;51.568;4.656;2023-04-15T03:03:35;8.56;75.51
68257;DHT22;55069;51.568;4.656;2023-04-15T03:06:00;8.56;75.36
68257;DHT22;55069;51.568;4.656;2023-04-15T03:08:27;8.57;74.99
68257;DHT22;55069;51.568;4.656;2023-04-15T03:10:57;8.60;74.75
68257;DHT22;55069;51.568;4.656;2023-04-15T03:13:25;8.57;74.50
68257;DHT22;55069;51.568;4.656;2023-04-15T03:15:52;8.56;74.20
68257;DHT22;55069;51.568;4.656;2023-04-15T03:18:18;8.64;73.33
68257;DHT22;55069;51.568;4.656;2023-04-15T03:20:44;8.73;71.85
68257;DHT22;55069;51.568;4.656;2023-04-15T03:23:11;8.79;71.30
68257;DHT22;55069;51.568;4.656;2023-04-15T03:25:37;8.77;72.22
68257;DHT22;55069;51.568;4.656;2023-04-15T03:28:05;8.76;70.58
68257;DHT22;55069;51.568;4.656;2023-04-15T03:30:31;8.73;71.86
68257;DHT22;55069;51.568;4.656;2023-04-15T03:32:57;8.74;72.01
68257;DHT22;55069;51.568;4.656;2023-04-15T03:35:23;8.66;73.32
68257;DHT22;55069;51.568;4.656;2023-04-15T03:37:48;8.66;72.54
68257;DHT22;55069;51.568;4.656;2023-04-15T03:40:14;8.57;73.13
68257;DHT22;55069;51.568;4.656;2023-04-15T03:42:40;8.60;73.18
68257;DHT22;55069;51.568;4.656;2023-04-15T03:45:06;8.52;73.68
68257;DHT22;55069;51.568;4.656;2023-04-15T03:47:32;8.50;74.15
68257;DHT22;55069;51.568;4.656;2023-04-15T03:49:57;8.50;72.75
68257;DHT22;55069;51.568;4.656;2023-04-15T03:52:23;8.50;72.70
68257;DHT22;55069;51.568;4.656;2023-04-15T03:54:48;8.49;72.99
68257;DHT22;55069;51.568;4.656;2023-04-15T03:57:14;8.48;72.99
68257;DHT22;55069;51.568;4.656;2023-04-15T03:59:39;8.43;73.60
68257;DHT22;55069;51.568;4.656;2023-04-15T04:02:05;8.36;74.22
68257;DHT22;55069;51.568;4.656;2023-04-15T04:04:31;8.45;73.53
68257;DHT22;55069;51.568;4.656;2023-04-15T04:06:56;8.38;73.58
68257;DHT22;55069;51.568;4.656;2023-04-15T04:09:22;8.36;73.85
68257;DHT22;55069;51.568;4.656;2023-04-15T04:11:47;8.38;74.13
68257;DHT22;55069;51.568;4.656;2023-04-15T04:14:13;8.32;74.06
68257;DHT22;55069;51.568;4.656;2023-04-15T04:16:38;8.32;74.10
68257;DHT22;55069;51.568;4.656;2023-04-15T04:19:04;8.29;74.71
68257;DHT22;55069;51.568;4.656;2023-04-15T04:21:29;8.26;74.68
68257;DHT22;55069;51.568;4.656;2023-04-15T04:23:55;8.29;74.30
68257;DHT22;55069;51.568;4.656;2023-04-15T04:26:21;8.38;74.09
68257;DHT22;55069;51.568;4.656;2023-04-15T04:28:47;8.32;74.71
68257;DHT22;55069;51.568;4.656;2023-04-15T04:31:12;8.38;74.67
68257;DHT22;55069;51.568;4.656;2023-04-15T04:33:38;8.32;74.51
68257;DHT22;55069;51.568;4.656;2023-04-15T04:36:04;8.29;74.72
68257;DHT22;55069;51.568;4.656;2023-04-15T04:38:30;8.25;74.46
68257;DHT22;55069;51.568;4.656;2023-04-15T04:40:55;8.20;75.42
68257;DHT22;55069;51.568;4.656;2023-04-15T04:43:21;8.18;75.27
68257;DHT22;55069;51.568;4.656;2023-04-15T04:45:46;8.12;75.16
68257;DHT22;55069;51.568;4.656;2023-04-15T04:48:12;8.04;75.53
68257;DHT22;55069;51.568;4.656;2023-04-15T04:50:37;7.99;76.04
68257;DHT22;55069;51.568;4.656;2023-04-15T04:53:03;8.02;76.27
68257;DHT22;55069;51.568;4.656;2023-04-15T04:55:29;7.90;76.71
68257;DHT22;55069;51.568;4.656;2023-04-15T04:57:54;7.90;76.62
68257;DHT22;55069;51.568;4.656;2023-04-15T05:00:20;7.91;76.84
68257;DHT22;55069;51.568;4.656;2023-04-15T05:02:45;7.94;77.16
68257;DHT22;55069;51.568;4.656;2023-04-15T05:05:11;7.93;77.14
68257;DHT22;55069;51.568;4.656;2023-04-15T05:07:37;7.93;77.62
68257;DHT22;55069;51.568;4.656;2023-04-15T05:10:04;7.98;77.42
68257;DHT22;55069;51.568;4.656;2023-04-15T05:12:30;8.01;77.40
68257;DHT22;55069;51.568;4.656;2023-04-15T05:14:56;8.04;76.67
68257;DHT22;55069;51.568;4.656;2023-04-15T05:17:22;8.05;77.20
68257;DHT22;55069;51.568;4.656;2023-04-15T05:19:47;8.08;76.42
68257;DHT22;55069;51.568;4.656;2023-04-15T05:22:13;8.20;75.45
68257;DHT22;55069;51.568;4.656;2023-04-15T05:24:38;8.33;75.88
68257;DHT22;55069;51.568;4.656;2023-04-15T05:27:04;8.35;75.33
68257;DHT22;55069;51.568;4.656;2023-04-15T05:29:30;8.36;75.36
68257;DHT22;55069;51.568;4.656;2023-04-15T05:31:56;8.36;74.77
68257;DHT22;55069;51.568;4.656;2023-04-15T05:34:21;8.39;74.78
68257;DHT22;55069;51.568;4.656;2023-04-15T05:36:47;8.42;75.35
68257;DHT22;55069;51.568;4.656;2023-04-15T05:39:13;8.52;74.98
68257;DHT22;55069;51.568;4.656;2023-04-15T05:41:38;8.52;74.82
68257;DHT22;55069;51.568;4.656;2023-04-15T05:44:04;8.59;74.99
68257;DHT22;55069;51.568;4.656;2023-04-15T05:46:29;8.66;74.82
68257;DHT22;55069;51.568;4.656;2023-04-15T05:48:55;8.73;74.39
68257;DHT22;55069;51.568;4.656;2023-04-15T05:51:21;8.84;74.43
68257;DHT22;55069;51.568;4.656;2023-04-15T05:53:46;8.94;74.13
68257;DHT22;55069;51.568;4.656;2023-04-15T05:56:12;9.04;74.03
68257;DHT22;55069;51.568;4.656;2023-04-15T05:58:37;9.00;73.82
68257;DHT22;55069;51.568;4.656;2023-04-15T06:01:03;9.04;73.39
68257;DHT22;55069;51.568;4.656;2023-04-15T06:03:29;9.05;73.68
68257;DHT22;55069;51.568;4.656;2023-04-15T06:05:54;9.18;72.99
68257;DHT22;55069;51.568;4.656;2023-04-15T06:08:20;9.29;73.19
68257;DHT22;55069;51.568;4.656;2023-04-15T06:10:46;9.38;72.53
68257;DHT22;55069;51.568;4.656;2023-04-15T06:13:12;9.50;73.23
68257;DHT22;55069;51.568;4.656;2023-04-15T06:15:38;9.66;72.12
68257;DHT22;55069;51.568;4.656;2023-04-15T06:18:03;9.77;72.37
68257;DHT22;55069;51.568;4.656;2023-04-15T06:20:29;9.87;72.13
68257;DHT22;55069;51.568;4.656;2023-04-15T06:22:55;9.94;71.44
68257;DHT22;55069;51.568;4.656;2023-04-15T06:25:21;9.97;71.23
68257;DHT22;55069;51.568;4.656;2023-04-15T06:27:47;10.04;71.33
68257;DHT22;55069;51.568;4.656;2023-04-15T06:30:13;10.10;71.32
68257;DHT22;55069;51.568;4.656;2023-04-15T06:32:38;10.11;71.16
68257;DHT22;55069;51.568;4.656;2023-04-15T06:35:04;10.08;70.68
68257;DHT22;55069;51.568;4.656;2023-04-15T06:37:30;10.10;70.41
68257;DHT22;55069;51.568;4.656;2023-04-15T06:39:56;10.08;71.12
68257;DHT22;55069;51.568;4.656;2023-04-15T06:42:21;10.10;71.30
68257;DHT22;55069;51.568;4.656;2023-04-15T06:44:47;10.04;70.80
68257;DHT22;55069;51.568;4.656;2023-04-15T06:47:12;10.08;71.14
68257;DHT22;55069;51.568;4.656;2023-04-15T06:49:39;10.08;71.01
68257;DHT22;55069;51.568;4.656;2023-04-15T06:52:05;10.10;70.82
68257;DHT22;55069;51.568;4.656;2023-04-15T06:54:31;10.10;70.92
68257;DHT22;55069;51.568;4.656;2023-04-15T06:56:56;10.08;71.13
68257;DHT22;55069;51.568;4.656;2023-04-15T06:59:22;10.14;71.91
68257;DHT22;55069;51.568;4.656;2023-04-15T07:01:48;10.14;71.16
68257;DHT22;55069;51.568;4.656;2023-04-15T07:04:14;10.15;70.84
68257;DHT22;55069;51.568;4.656;2023-04-15T07:06:39;10.21;70.59
68257;DHT22;55069;51.568;4.656;2023-04-15T07:09:06;10.21;71.95
68257;DHT22;55069;51.568;4.656;2023-04-15T07:11:31;10.22;71.49
68257;DHT22;55069;51.568;4.656;2023-04-15T07:13:57;10.15;71.13
68257;DHT22;55069;51.568;4.656;2023-04-15T07:16:23;10.18;72.00
68257;DHT22;55069;51.568;4.656;2023-04-15T07:18:49;10.14;71.61
68257;DHT22;55069;51.568;4.656;2023-04-15T07:21:14;10.18;71.98
68257;DHT22;55069;51.568;4.656;2023-04-15T07:23:41;10.21;71.97
68257;DHT22;55069;51.568;4.656;2023-04-15T07:26:07;10.30;71.84
68257;DHT22;55069;51.568;4.656;2023-04-15T07:28:32;10.27;71.16
68257;DHT22;55069;51.568;4.656;2023-04-15T07:30:58;10.24;71.31
68257;DHT22;55069;51.568;4.656;2023-04-15T07:33:24;10.24;71.85
68257;DHT22;55069;51.568;4.656;2023-04-15T07:35:49;10.37;71.90
68257;DHT22;55069;51.568;4.656;2023-04-15T07:38:15;10.40;72.01
68257;DHT22;55069;51.568;4.656;2023-04-15T07:40:41;10.51;72.68
68257;DHT22;55069;51.568;4.656;2023-04-15T07:43:07;10.69;72.42
68257;DHT22;55069;51.568;4.656;2023-04-15T07:45:33;10.76;71.08
68257;DHT22;55069;51.568;4.656;2023-04-15T07:48:00;10.82;71.15
68257;DHT22;55069;51.568;4.656;2023-04-15T07:50:27;10.95;71.10
68257;DHT22;55069;51.568;4.656;2023-04-15T07:52:53;11.09;70.90
68257;DHT22;55069;51.568;4.656;2023-04-15T07:55:18;11.16;70.21
68257;DHT22;55069;51.568;4.656;2023-04-15T07:57:46;11.17;70.59
68257;DHT22;55069;51.568;4.656;2023-04-15T08:00:12;11.32;70.74
68257;DHT22;55069;51.568;4.656;2023-04-15T08:02:38;11.37;70.31
68257;DHT22;55069;51.568;4.656;2023-04-15T08:05:04;11.47;69.00
68257;DHT22;55069;51.568;4.656;2023-04-15T08:07:30;11.51;68.48
68257;DHT22;55069;51.568;4.656;2023-04-15T08:09:56;11.55;67.96
68257;DHT22;55069;51.568;4.656;2023-04-15T08:12:22;11.68;68.10
68257;DHT22;55069;51.568;4.656;2023-04-15T08:14:49;11.71;67.38
68257;DHT22;55069;51.568;4.656;2023-04-15T08:17:15;11.81;67.02
68257;DHT22;55069;51.568;4.656;2023-04-15T08:19:41;11.87;68.05
68257;DHT22;55069;51.568;4.656;2023-04-15T08:22:07;11.99;67.94
68257;DHT22;55069;51.568;4.656;2023-04-15T08:24:33;12.05;67.57
68257;DHT22;55069;51.568;4.656;2023-04-15T08:26:59;11.92;67.25
68257;DHT22;55069;51.568;4.656;2023-04-15T08:29:25;12.03;67.46
68257;DHT22;55069;51.568;4.656;2023-04-15T08:31:51;12.06;66.37
68257;DHT22;55069;51.568;4.656;2023-04-15T08:34:18;12.26;66.98
68257;DHT22;55069;51.568;4.656;2023-04-15T08:36:44;12.32;67.03
68257;DHT22;55069;51.568;4.656;2023-04-15T08:39:09;12.32;66.74
68257;DHT22;55069;51.568;4.656;2023-04-15T08:41:40;12.37;67.62
68257;DHT22;55069;51.568;4.656;2023-04-15T08:44:09;12.47;66.27
68257;DHT22;55069;51.568;4.656;2023-04-15T08:46:35;12.41;66.56
68257;DHT22;55069;51.568;4.656;2023-04-15T08:49:03;12.50;65.81
68257;DHT22;55069;51.568;4.656;2023-04-15T08:51:29;12.57;65.97
68257;DHT22;55069;51.568;4.656;2023-04-15T08:53:55;12.71;66.72
68257;DHT22;55069;51.568;4.656;2023-04-15T08:56:24;12.78;66.43
68257;DHT22;55069;51.568;4.656;2023-04-15T08:58:53;12.81;65.99
68257;DHT22;55069;51.568;4.656;2023-04-15T09:01:19;12.77;66.26
68257;DHT22;55069;51.568;4.656;2023-04-15T09:03:47;12.75;65.66
68257;DHT22;55069;51.568;4.656;2023-04-15T09:06:15;12.79;65.49
68257;DHT22;55069;51.568;4.656;2023-04-15T09:08:41;12.82;65.63
68257;DHT22;55069;51.568;4.656;2023-04-15T09:11:07;13.00;65.66
68257;DHT22;55069;51.568;4.656;2023-04-15T09:13:32;13.06;66.10
68257;DHT22;55069;51.568;4.656;2023-04-15T09:16:01;13.26;66.74
68257;DHT22;55069;51.568;4.656;2023-04-15T09:18:30;13.23;64.76
68257;DHT22;55069;51.568;4.656;2023-04-15T09:21:04;13.12;63.96
68257;DHT22;55069;51.568;4.656;2023-04-15T09:23:31;12.91;64.06
68257;DHT22;55069;51.568;4.656;2023-04-15T09:25:57;12.88;64.09
68257;DHT22;55069;51.568;4.656;2023-04-15T09:28:24;13.08;64.47
68257;DHT22;55069;51.568;4.656;2023-04-15T09:30:57;13.18;63.54
68257;DHT22;55069;51.568;4.656;2023-04-15T09:33:23;13.30;62.51
68257;DHT22;55069;51.568;4.656;2023-04-15T09:36:01;13.40;62.00
68257;DHT22;55069;51.568;4.656;2023-04-15T09:38:27;13.46;61.91
68257;DHT22;55069;51.568;4.656;2023-04-15T09:40:54;13.57;61.38
68257;DHT22;55069;51.568;4.656;2023-04-15T09:43:19;13.32;59.37
68257;DHT22;55069;51.568;4.656;2023-04-15T09:45:51;13.39;60.66
68257;DHT22;55069;51.568;4.656;2023-04-15T09:48:20;13.54;60.83
68257;DHT22;55069;51.568;4.656;2023-04-15T09:50:47;13.68;61.69
68257;DHT22;55069;51.568;4.656;2023-04-15T09:53:22;13.73;60.84
68257;DHT22;55069;51.568;4.656;2023-04-15T09:55:55;13.87;61.19
68257;DHT22;55069;51.568;4.656;2023-04-15T09:58:23;13.67;59.31
68257;DHT22;55069;51.568;4.656;2023-04-15T10:00:50;13.56;61.03
68257;DHT22;55069;51.568;4.656;2023-04-15T10:03:27;13.60;61.50
68257;DHT22;55069;51.568;4.656;2023-04-15T10:05:54;13.79;61.41
68257;DHT22;55069;51.568;4.656;2023-04-15T10:08:22;13.88;60.36
68257;DHT22;55069;51.568;4.656;2023-04-15T10:10:50;13.82;60.72
68257;DHT22;55069;51.568;4.656;2023-04-15T10:13:24;13.98;61.60
68257;DHT22;55069;51.568;4.656;2023-04-15T10:16:01;14.06;60.27
68257;DHT22;55069;51.568;4.656;2023-04-15T10:18:31;14.06;60.28
68257;DHT22;55069;51.568;4.656;2023-04-15T10:20:59;14.19;60.68
68257;DHT22;55069;51.568;4.656;2023-04-15T10:23:25;14.04;57.98
68257;DHT22;55069;51.568;4.656;2023-04-15T10:25:52;14.01;58.70
68257;DHT22;55069;51.568;4.656;2023-04-15T10:28:21;13.94;59.01
68257;DHT22;55069;51.568;4.656;2023-04-15T10:30:47;14.01;60.02
68257;DHT22;55069;51.568;4.656;2023-04-15T10:33:16;14.19;59.87
68257;DHT22;55069;51.568;4.656;2023-04-15T10:35:44;14.46;60.27
68257;DHT22;55069;51.568;4.656;2023-04-15T10:38:31;14.26;58.39
68257;DHT22;55069;51.568;4.656;2023-04-15T10:43:47;14.46;57.15
68257;DHT22;55069;51.568;4.656;2023-04-15T10:46:17;14.44;56.28
68257;DHT22;55069;51.568;4.656;2023-04-15T10:48:52;14.33;53.62
68257;DHT22;55069;51.568;4.656;2023-04-15T10:51:30;14.46;56.55
68257;DHT22;55069;51.568;4.656;2023-04-15T10:53:58;14.37;54.44
68257;DHT22;55069;51.568;4.656;2023-04-15T10:56:24;14.44;54.34
68257;DHT22;55069;51.568;4.656;2023-04-15T10:58:49;14.42;53.54
68257;DHT22;55069;51.568;4.656;2023-04-15T11:01:18;14.37;53.21
68257;DHT22;55069;51.568;4.656;2023-04-15T11:03:47;14.50;54.69
68257;DHT22;55069;51.568;4.656;2023-04-15T11:06:13;14.42;53.79
68257;DHT22;55069;51.568;4.656;2023-04-15T11:08:59;14.67;55.93
68257;DHT22;55069;51.568;4.656;2023-04-15T11:12:07;14.84;55.91
68257;DHT22;55069;51.568;4.656;2023-04-15T11:14:38;14.80;56.59
68257;DHT22;55069;51.568;4.656;2023-04-15T11:17:04;14.61;56.63
68257;DHT22;55069;51.568;4.656;2023-04-15T11:19:37;14.80;58.45
68257;DHT22;55069;51.568;4.656;2023-04-15T11:22:09;14.77;57.20
68257;DHT22;55069;51.568;4.656;2023-04-15T11:24:36;14.74;49.99
68257;DHT22;55069;51.568;4.656;2023-04-15T11:27:19;14.79;53.03
68257;DHT22;55069;51.568;4.656;2023-04-15T11:29:45;14.83;49.70
68257;DHT22;55069;51.568;4.656;2023-04-15T11:32:11;14.29;51.31
68257;DHT22;55069;51.568;4.656;2023-04-15T11:34:37;14.53;54.74
68257;DHT22;55069;51.568;4.656;2023-04-15T11:37:03;14.71;55.41
68257;DHT22;55069;51.568;4.656;2023-04-15T11:39:30;14.85;55.78
68257;DHT22;55069;51.568;4.656;2023-04-15T11:41:55;15.08;56.17
68257;DHT22;55069;51.568;4.656;2023-04-15T11:44:21;14.91;55.27
68257;DHT22;55069;51.568;4.656;2023-04-15T11:46:47;14.85;56.17
68257;DHT22;55069;51.568;4.656;2023-04-15T11:49:28;14.98;56.18
68257;DHT22;55069;51.568;4.656;2023-04-15T11:51:55;15.02;53.12
68257;DHT22;55069;51.568;4.656;2023-04-15T11:54:20;15.01;55.43
68257;DHT22;55069;51.568;4.656;2023-04-15T11:56:50;15.11;58.17
68257;DHT22;55069;51.568;4.656;2023-04-15T11:59:16;14.95;58.45
68257;DHT22;55069;51.568;4.656;2023-04-15T12:01:42;14.66;57.41
68257;DHT22;55069;51.568;4.656;2023-04-15T12:04:12;14.74;58.82
68257;DHT22;55069;51.568;4.656;2023-04-15T12:06:38;14.63;58.18
68257;DHT22;55069;51.568;4.656;2023-04-15T12:09:07;14.71;56.64
68257;DHT22;55069;51.568;4.656;2023-04-15T12:11:38;14.76;58.80
68257;DHT22;55069;51.568;4.656;2023-04-15T12:14:20;14.53;56.20
68257;DHT22;55069;51.568;4.656;2023-04-15T12:16:52;14.25;56.05
68257;DHT22;55069;51.568;4.656;2023-04-15T12:21:52;14.57;57.19
68257;DHT22;55069;51.568;4.656;2023-04-15T12:24:21;14.42;58.19
68257;DHT22;55069;51.568;4.656;2023-04-15T12:29:15;14.34;56.37
68257;DHT22;55069;51.568;4.656;2023-04-15T12:31:53;14.32;57.63
68257;DHT22;55069;51.568;4.656;2023-04-15T12:36:52;14.30;56.88
68257;DHT22;55069;51.568;4.656;2023-04-15T12:39:21;14.39;57.24
68257;DHT22;55069;51.568;4.656;2023-04-15T12:41:47;14.29;56.56
68257;DHT22;55069;51.568;4.656;2023-04-15T12:44:13;14.40;56.92
68257;DHT22;55069;51.568;4.656;2023-04-15T12:46:38;14.63;57.34
68257;DHT22;55069;51.568;4.656;2023-04-15T12:49:04;14.37;57.20
68257;DHT22;55069;51.568;4.656;2023-04-15T12:51:30;14.70;58.03
68257;DHT22;55069;51.568;4.656;2023-04-15T12:53:56;14.83;57.97
68257;DHT22;55069;51.568;4.656;2023-04-15T12:56:22;14.95;59.35
68257;DHT22;55069;51.568;4.656;2023-04-15T12:58:49;14.74;57.10
68257;DHT22;55069;51.568;4.656;2023-04-15T13:01:16;14.80;57.83
68257;DHT22;55069;51.568;4.656;2023-04-15T13:03:41;14.67;58.13
68257;DHT22;55069;51.568;4.656;2023-04-15T13:06:07;15.08;59.90
68257;DHT22;55069;51.568;4.656;2023-04-15T13:08:33;14.87;58.96
68257;DHT22;55069;51.568;4.656;2023-04-15T13:10:58;15.00;58.18
68257;DHT22;55069;51.568;4.656;2023-04-15T13:13:24;14.71;59.78
68257;DHT22;55069;51.568;4.656;2023-04-15T13:15:50;14.91;59.52
68257;DHT22;55069;51.568;4.656;2023-04-15T13:18:16;15.07;58.89
68257;DHT22;55069;51.568;4.656;2023-04-15T13:20:42;15.00;58.19
68257;DHT22;55069;51.568;4.656;2023-04-15T13:23:07;14.76;58.09
68257;DHT22;55069;51.568;4.656;2023-04-15T13:25:33;15.24;59.76
68257;DHT22;55069;51.568;4.656;2023-04-15T13:27:59;15.19;59.44
68257;DHT22;55069;51.568;4.656;2023-04-15T13:30:26;15.31;58.85
68257;DHT22;55069;51.568;4.656;2023-04-15T13:32:52;15.22;58.41
68257;DHT22;55069;51.568;4.656;2023-04-15T13:35:19;14.90;59.35
68257;DHT22;55069;51.568;4.656;2023-04-15T13:37:46;15.19;58.44
68257;DHT22;55069;51.568;4.656;2023-04-15T13:40:12;14.80;56.68
68257;DHT22;55069;51.568;4.656;2023-04-15T13:42:37;14.50;56.81
68257;DHT22;55069;51.568;4.656;2023-04-15T13:45:03;14.49;57.07
68257;DHT22;55069;51.568;4.656;2023-04-15T13:47:29;14.59;56.75
68257;DHT22;55069;51.568;4.656;2023-04-15T13:49:55;14.70;55.25
68257;DHT22;55069;51.568;4.656;2023-04-15T13:52:22;14.70;55.80
68257;DHT22;55069;51.568;4.656;2023-04-15T13:54:48;14.90;56.46
68257;DHT22;55069;51.568;4.656;2023-04-15T13:57:14;15.19;55.22
68257;DHT22;55069;51.568;4.656;2023-04-15T13:59:40;15.14;54.43
68257;DHT22;55069;51.568;4.656;2023-04-15T14:02:06;15.55;56.65
68257;DHT22;55069;51.568;4.656;2023-04-15T14:04:31;15.21;55.68
68257;DHT22;55069;51.568;4.656;2023-04-15T14:06:57;15.70;56.75
68257;DHT22;55069;51.568;4.656;2023-04-15T14:09:23;15.50;56.45
68257;DHT22;55069;51.568;4.656;2023-04-15T14:11:49;15.15;56.36
68257;DHT22;55069;51.568;4.656;2023-04-15T14:14:15;15.07;52.98
68257;DHT22;55069;51.568;4.656;2023-04-15T14:16:40;14.71;52.00
68257;DHT22;55069;51.568;4.656;2023-04-15T14:19:06;14.64;53.12
68257;DHT22;55069;51.568;4.656;2023-04-15T14:21:32;14.97;53.22
68257;DHT22;55069;51.568;4.656;2023-04-15T14:23:58;15.27;52.84
68257;DHT22;55069;51.568;4.656;2023-04-15T14:26:23;15.08;55.14
68257;DHT22;55069;51.568;4.656;2023-04-15T14:28:49;15.21;55.04
68257;DHT22;55069;51.568;4.656;2023-04-15T14:31:15;15.36;55.74
68257;DHT22;55069;51.568;4.656;2023-04-15T14:33:41;15.73;57.04
68257;DHT22;55069;51.568;4.656;2023-04-15T14:36:08;15.45;56.14
68257;DHT22;55069;51.568;4.656;2023-04-15T14:38:34;15.28;56.37
68257;DHT22;55069;51.568;4.656;2023-04-15T14:41:07;14.85;57.44
68257;DHT22;55069;51.568;4.656;2023-04-15T14:43:34;14.69;55.90
68257;DHT22;55069;51.568;4.656;2023-04-15T14:46:00;14.85;55.48
68257;DHT22;55069;51.568;4.656;2023-04-15T14:48:26;15.32;56.42
68257;DHT22;55069;51.568;4.656;2023-04-15T14:50:52;15.36;55.80
68257;DHT22;55069;51.568;4.656;2023-04-15T14:53:17;15.02;56.98
68257;DHT22;55069;51.568;4.656;2023-04-15T14:55:43;14.22;57.13
68257;DHT22;55069;51.568;4.656;2023-04-15T14:58:10;14.64;57.67
68257;DHT22;55069;51.568;4.656;2023-04-15T15:00:36;14.85;54.98
68257;DHT22;55069;51.568;4.656;2023-04-15T15:03:04;14.91;57.86
68257;DHT22;55069;51.568;4.656;2023-04-15T15:05:38;14.64;58.28
68257;DHT22;55069;51.568;4.656;2023-04-15T15:08:05;14.32;59.40
68257;DHT22;55069;51.568;4.656;2023-04-15T15:10:32;14.63;57.87
68257;DHT22;55069;51.568;4.656;2023-04-15T15:12:57;14.88;56.91
68257;DHT22;55069;51.568;4.656;2023-04-15T15:15:23;14.59;56.86
68257;DHT22;55069;51.568;4.656;2023-04-15T15:17:49;14.14;58.41
68257;DHT22;55069;51.568;4.656;2023-04-15T15:20:16;13.94;59.13
68257;DHT22;55069;51.568;4.656;2023-04-15T15:22:42;14.36;58.24
68257;DHT22;55069;51.568;4.656;2023-04-15T15:25:07;14.85;57.71
68257;DHT22;55069;51.568;4.656;2023-04-15T15:27:33;15.12;56.13
68257;DHT22;55069;51.568;4.656;2023-04-15T15:29:58;15.25;55.72
68257;DHT22;55069;51.568;4.656;2023-04-15T15:32:24;14.56;55.40
68257;DHT22;55069;51.568;4.656;2023-04-15T15:34:50;14.11;55.34
68257;DHT22;55069;51.568;4.656;2023-04-15T15:37:16;13.75;56.85
68257;DHT22;55069;51.568;4.656;2023-04-15T15:39:42;13.44;58.58
68257;DHT22;55069;51.568;4.656;2023-04-15T15:42:07;13.87;58.01
68257;DHT22;55069;51.568;4.656;2023-04-15T15:44:33;14.34;57.34